sensor_id;sensor_type;location;lat;lon;timestamp;P1;durP1;ratioP1;P2;durP2;ratioP2
35380;SDS011;21486;51.916;8.378;2023-03-15T00:00:04;18.38;;;3.83;;
35380;SDS011;21486;51.916;8.378;2023-03-15T00:02:34;13.35;;;3.35;;
35380;SDS011;21486;51.916;8.378;2023-03-15T00:04:59;13.30;;;3.33;;
35380;SDS011;21486;51.916;8.378;2023-03-15T00:07:25;22.27;;;3.63;;
35380;SDS011;21486;51.916;8.378;2023-03-15T00:09:51;17.87;;;3.23;;
35380;SDS011;21486;51.916;8.378;2023-03-15T00:12:17;13.68;;;3.85;;
35380;SDS011;21486;51.916;8.378;2023-03-15T00:14:43;15.00;;;3.33;;
35380;SDS011;21486;51.916;8.378;2023-03-15T00:17:08;21.23;;;3.67;;
35380;SDS011;21486;51.916;8.378;2023-03-15T00:19:35;14.90;;;3.90;;
35380;SDS011;21486;51.916;8.378;2023-03-15T00:22:01;21.20;;;3.60;;
35380;SDS011;21486;51.916;8.378;2023-03-15T00:24:26;13.25;;;3.33;;
35380;SDS011;21486;51.916;8.378;2023-03-15T00:26:52;15.55;;;3.60;;
35380;SDS011;21486;51.916;8.378;2023-03-15T00:29:18;26.02;;;3.30;;
35380;SDS011;21486;51.916;8.378;2023-03-15T00:31:43;19.93;;;3.47;;
35380;SDS011;21486;51.916;8.378;2023-03-15T00:34:09;15.90;;;3.10;;
35380;SDS011;21486;51.916;8.378;2023-03-15T00:36:37;24.80;;;4.40;;
35380;SDS011;21486;51.916;8.378;2023-03-15T00:39:03;15.25;;;3.40;;
35380;SDS011;21486;51.916;8.378;2023-03-15T00:41:29;19.25;;;3.78;;
35380;SDS011;21486;51.916;8.378;2023-03-15T00:43:56;19.45;;;3.45;;
35380;SDS011;21486;51.916;8.378;2023-03-15T00:46:21;21.52;;;3.47;;
35380;SDS011;21486;51.916;8.378;2023-03-15T00:48:48;14.55;;;3.42;;
35380;SDS011;21486;51.916;8.378;2023-03-15T00:51:16;20.02;;;4.25;;
35380;SDS011;21486;51.916;8.378;2023-03-15T00:53:43;16.77;;;4.00;;
35380;SDS011;21486;51.916;8.378;2023-03-15T00:56:13;15.32;;;3.88;;
35380;SDS011;21486;51.916;8.378;2023-03-15T00:58:41;15.43;;;3.67;;
35380;SDS011;21486;51.916;8.378;2023-03-15T01:01:08;18.07;;;3.90;;
35380;SDS011;21486;51.916;8.378;2023-03-15T01:03:42;17.90;;;4.00;;
35380;SDS011;21486;51.916;8.378;2023-03-15T01:06:10;17.23;;;4.05;;
35380;SDS011;21486;51.916;8.378;2023-03-15T01:08:40;23.65;;;4.75;;
35380;SDS011;21486;51.916;8.378;2023-03-15T01:11:08;19.63;;;4.13;;
35380;SDS011;21486;51.916;8.378;2023-03-15T01:13:42;23.30;;;4.55;;
35380;SDS011;21486;51.916;8.378;2023-03-15T01:16:09;26.00;;;4.28;;
35380;SDS011;21486;51.916;8.378;2023-03-15T01:18:36;22.48;;;3.95;;
35380;SDS011;21486;51.916;8.378;2023-03-15T01:21:05;18.58;;;4.35;;
35380;SDS011;21486;51.916;8.378;2023-03-15T01:23:31;16.87;;;3.63;;
35380;SDS011;21486;51.916;8.378;2023-03-15T01:26:00;16.70;;;4.17;;
35380;SDS011;21486;51.916;8.378;2023-03-15T01:28:29;15.90;;;4.40;;
35380;SDS011;21486;51.916;8.378;2023-03-15T01:33:02;10.93;;;3.60;;
35380;SDS011;21486;51.916;8.378;2023-03-15T01:35:28;15.68;;;4.45;;
35380;SDS011;21486;51.916;8.378;2023-03-15T01:37:53;16.47;;;4.67;;
35380;SDS011;21486;51.916;8.378;2023-03-15T01:40:19;20.60;;;5.10;;
35380;SDS011;21486;51.916;8.378;2023-03-15T01:42:51;16.58;;;4.40;;
35380;SDS011;21486;51.916;8.378;2023-03-15T01:48:33;14.73;;;5.05;;
35380;SDS011;21486;51.916;8.378;2023-03-15T01:50:59;19.98;;;5.88;;
35380;SDS011;21486;51.916;8.378;2023-03-15T01:53:30;20.52;;;5.70;;
35380;SDS011;21486;51.916;8.378;2023-03-15T01:55:57;20.42;;;5.70;;
35380;SDS011;21486;51.916;8.378;2023-03-15T01:58:24;19.02;;;5.93;;
35380;SDS011;21486;51.916;8.378;2023-03-15T02:00:51;21.00;;;6.53;;
35380;SDS011;21486;51.916;8.378;2023-03-15T02:03:18;19.35;;;6.22;;
35380;SDS011;21486;51.916;8.378;2023-03-15T02:05:52;24.55;;;6.38;;
35380;SDS011;21486;51.916;8.378;2023-03-15T02:08:21;25.92;;;6.88;;
35380;SDS011;21486;51.916;8.378;2023-03-15T02:10:50;19.10;;;6.32;;
35380;SDS011;21486;51.916;8.378;2023-03-15T02:13:20;16.70;;;6.63;;
35380;SDS011;21486;51.916;8.378;2023-03-15T02:15:48;19.53;;;8.20;;
35380;SDS011;21486;51.916;8.378;2023-03-15T02:18:15;15.05;;;8.07;;
35380;SDS011;21486;51.916;8.378;2023-03-15T02:23:21;16.42;;;8.25;;
35380;SDS011;21486;51.916;8.378;2023-03-15T02:28:45;15.23;;;8.38;;
35380;SDS011;21486;51.916;8.378;2023-03-15T02:31:10;13.95;;;9.93;;
35380;SDS011;21486;51.916;8.378;2023-03-15T02:33:43;18.50;;;11.03;;
35380;SDS011;21486;51.916;8.378;2023-03-15T02:36:18;19.52;;;11.63;;
35380;SDS011;21486;51.916;8.378;2023-03-15T02:38:49;19.75;;;12.23;;
35380;SDS011;21486;51.916;8.378;2023-03-15T02:41:17;21.17;;;13.93;;
35380;SDS011;21486;51.916;8.378;2023-03-15T02:44:06;23.80;;;15.85;;
35380;SDS011;21486;51.916;8.378;2023-03-15T02:46:40;23.38;;;15.80;;
35380;SDS011;21486;51.916;8.378;2023-03-15T02:49:07;22.23;;;15.45;;
35380;SDS011;21486;51.916;8.378;2023-03-15T02:51:34;26.75;;;16.52;;
35380;SDS011;21486;51.916;8.378;2023-03-15T02:53:59;25.60;;;16.38;;
35380;SDS011;21486;51.916;8.378;2023-03-15T02:56:25;28.10;;;17.57;;
35380;SDS011;21486;51.916;8.378;2023-03-15T02:58:50;22.73;;;16.60;;
35380;SDS011;21486;51.916;8.378;2023-03-15T03:01:16;26.80;;;18.42;;
35380;SDS011;21486;51.916;8.378;2023-03-15T03:03:43;28.60;;;19.42;;
35380;SDS011;21486;51.916;8.378;2023-03-15T03:06:10;31.42;;;20.67;;
35380;SDS011;21486;51.916;8.378;2023-03-15T03:08:36;38.95;;;21.95;;
35380;SDS011;21486;51.916;8.378;2023-03-15T03:11:03;40.25;;;22.58;;
35380;SDS011;21486;51.916;8.378;2023-03-15T03:13:28;37.75;;;22.70;;
35380;SDS011;21486;51.916;8.378;2023-03-15T03:15:54;37.27;;;22.40;;
35380;SDS011;21486;51.916;8.378;2023-03-15T03:18:23;38.15;;;21.60;;
35380;SDS011;21486;51.916;8.378;2023-03-15T03:20:49;40.20;;;22.30;;
35380;SDS011;21486;51.916;8.378;2023-03-15T03:23:15;43.13;;;22.83;;
35380;SDS011;21486;51.916;8.378;2023-03-15T03:25:40;39.67;;;21.73;;
35380;SDS011;21486;51.916;8.378;2023-03-15T03:28:06;37.57;;;22.00;;
35380;SDS011;21486;51.916;8.378;2023-03-15T03:30:33;36.03;;;21.97;;
35380;SDS011;21486;51.916;8.378;2023-03-15T03:32:59;42.33;;;22.38;;
35380;SDS011;21486;51.916;8.378;2023-03-15T03:35:25;36.13;;;20.95;;
35380;SDS011;21486;51.916;8.378;2023-03-15T03:37:50;41.47;;;22.03;;
35380;SDS011;21486;51.916;8.378;2023-03-15T03:40:17;39.35;;;20.73;;
35380;SDS011;21486;51.916;8.378;2023-03-15T03:42:43;33.50;;;19.15;;
35380;SDS011;21486;51.916;8.378;2023-03-15T03:45:09;35.00;;;18.93;;
35380;SDS011;21486;51.916;8.378;2023-03-15T03:47:35;30.35;;;18.63;;
35380;SDS011;21486;51.916;8.378;2023-03-15T03:50:00;37.42;;;18.38;;
35380;SDS011;21486;51.916;8.378;2023-03-15T03:52:26;30.55;;;16.55;;
35380;SDS011;21486;51.916;8.378;2023-03-15T03:54:51;32.03;;;17.98;;
35380;SDS011;21486;51.916;8.378;2023-03-15T03:57:17;35.55;;;18.25;;
35380;SDS011;21486;51.916;8.378;2023-03-15T03:59:42;32.53;;;17.50;;
35380;SDS011;21486;51.916;8.378;2023-03-15T04:02:08;30.60;;;16.17;;
35380;SDS011;21486;51.916;8.378;2023-03-15T04:04:34;28.50;;;16.03;;
35380;SDS011;21486;51.916;8.378;2023-03-15T04:06:59;31.07;;;17.43;;
35380;SDS011;21486;51.916;8.378;2023-03-15T04:09:25;29.63;;;16.57;;
35380;SDS011;21486;51.916;8.378;2023-03-15T04:11:50;30.07;;;16.37;;
35380;SDS011;21486;51.916;8.378;2023-03-15T04:14:16;29.77;;;17.50;;
35380;SDS011;21486;51.916;8.378;2023-03-15T04:16:41;34.97;;;16.87;;
35380;SDS011;21486;51.916;8.378;2023-03-15T04:19:07;30.93;;;17.53;;
35380;SDS011;21486;51.916;8.378;2023-03-15T04:21:33;33.60;;;17.30;;
35380;SDS011;21486;51.916;8.378;2023-03-15T04:23:59;32.22;;;17.73;;
35380;SDS011;21486;51.916;8.378;2023-03-15T04:26:26;30.77;;;17.30;;
35380;SDS011;21486;51.916;8.378;2023-03-15T04:28:52;27.23;;;16.30;;
35380;SDS011;21486;51.916;8.378;2023-03-15T04:31:18;35.50;;;16.75;;
35380;SDS011;21486;51.916;8.378;2023-03-15T04:33:44;30.00;;;16.80;;
35380;SDS011;21486;51.916;8.378;2023-03-15T04:36:10;32.65;;;16.05;;
35380;SDS011;21486;51.916;8.378;2023-03-15T04:38:42;29.70;;;15.73;;
35380;SDS011;21486;51.916;8.378;2023-03-15T04:41:10;29.55;;;15.57;;
35380;SDS011;21486;51.916;8.378;2023-03-15T04:43:36;26.60;;;14.23;;
35380;SDS011;21486;51.916;8.378;2023-03-15T04:46:02;27.45;;;14.48;;
35380;SDS011;21486;51.916;8.378;2023-03-15T04:48:27;26.05;;;14.55;;
35380;SDS011;21486;51.916;8.378;2023-03-15T04:50:53;27.45;;;14.63;;
35380;SDS011;21486;51.916;8.378;2023-03-15T04:53:19;25.75;;;13.00;;
35380;SDS011;21486;51.916;8.378;2023-03-15T04:55:44;21.48;;;12.32;;
35380;SDS011;21486;51.916;8.378;2023-03-15T04:58:10;23.13;;;12.43;;
35380;SDS011;21486;51.916;8.378;2023-03-15T05:00:35;25.23;;;12.60;;
35380;SDS011;21486;51.916;8.378;2023-03-15T05:03:01;24.42;;;13.20;;
35380;SDS011;21486;51.916;8.378;2023-03-15T05:05:26;22.80;;;12.20;;
35380;SDS011;21486;51.916;8.378;2023-03-15T05:07:53;24.00;;;12.45;;
35380;SDS011;21486;51.916;8.378;2023-03-15T05:10:19;20.90;;;11.50;;
35380;SDS011;21486;51.916;8.378;2023-03-15T05:12:44;28.00;;;12.68;;
35380;SDS011;21486;51.916;8.378;2023-03-15T05:15:10;22.40;;;10.63;;
35380;SDS011;21486;51.916;8.378;2023-03-15T05:17:36;21.33;;;11.80;;
35380;SDS011;21486;51.916;8.378;2023-03-15T05:20:02;19.47;;;10.67;;
35380;SDS011;21486;51.916;8.378;2023-03-15T05:22:37;20.37;;;10.23;;
35380;SDS011;21486;51.916;8.378;2023-03-15T05:25:03;24.58;;;10.25;;
35380;SDS011;21486;51.916;8.378;2023-03-15T05:27:29;19.07;;;9.63;;
35380;SDS011;21486;51.916;8.378;2023-03-15T05:29:57;17.35;;;9.48;;
35380;SDS011;21486;51.916;8.378;2023-03-15T05:32:23;17.90;;;9.82;;
35380;SDS011;21486;51.916;8.378;2023-03-15T05:34:50;21.80;;;10.57;;
35380;SDS011;21486;51.916;8.378;2023-03-15T05:37:19;18.83;;;10.43;;
35380;SDS011;21486;51.916;8.378;2023-03-15T05:39:45;18.70;;;10.88;;
35380;SDS011;21486;51.916;8.378;2023-03-15T05:42:11;20.70;;;10.57;;
35380;SDS011;21486;51.916;8.378;2023-03-15T05:44:37;18.88;;;10.57;;
35380;SDS011;21486;51.916;8.378;2023-03-15T05:47:02;17.20;;;10.50;;
35380;SDS011;21486;51.916;8.378;2023-03-15T05:49:28;23.00;;;10.98;;
35380;SDS011;21486;51.916;8.378;2023-03-15T05:51:53;19.90;;;11.23;;
35380;SDS011;21486;51.916;8.378;2023-03-15T05:54:19;21.63;;;11.68;;
35380;SDS011;21486;51.916;8.378;2023-03-15T05:56:44;21.10;;;11.57;;
35380;SDS011;21486;51.916;8.378;2023-03-15T05:59:10;26.20;;;11.70;;
35380;SDS011;21486;51.916;8.378;2023-03-15T06:01:35;24.27;;;12.60;;
35380;SDS011;21486;51.916;8.378;2023-03-15T06:04:01;23.10;;;12.13;;
35380;SDS011;21486;51.916;8.378;2023-03-15T06:06:27;23.83;;;11.43;;
35380;SDS011;21486;51.916;8.378;2023-03-15T06:08:52;22.37;;;12.33;;
35380;SDS011;21486;51.916;8.378;2023-03-15T06:11:18;27.23;;;12.47;;
35380;SDS011;21486;51.916;8.378;2023-03-15T06:13:43;22.03;;;12.07;;
35380;SDS011;21486;51.916;8.378;2023-03-15T06:16:09;20.90;;;11.50;;
35380;SDS011;21486;51.916;8.378;2023-03-15T06:18:34;24.40;;;11.30;;
35380;SDS011;21486;51.916;8.378;2023-03-15T06:21:00;21.20;;;11.50;;
35380;SDS011;21486;51.916;8.378;2023-03-15T06:23:25;25.08;;;11.40;;
35380;SDS011;21486;51.916;8.378;2023-03-15T06:25:51;24.98;;;11.65;;
35380;SDS011;21486;51.916;8.378;2023-03-15T06:28:16;25.30;;;12.45;;
35380;SDS011;21486;51.916;8.378;2023-03-15T06:30:42;20.60;;;11.57;;
35380;SDS011;21486;51.916;8.378;2023-03-15T06:33:07;21.85;;;11.60;;
35380;SDS011;21486;51.916;8.378;2023-03-15T06:35:33;20.30;;;11.43;;
35380;SDS011;21486;51.916;8.378;2023-03-15T06:37:58;20.00;;;10.57;;
35380;SDS011;21486;51.916;8.378;2023-03-15T06:40:24;22.33;;;11.30;;
35380;SDS011;21486;51.916;8.378;2023-03-15T06:42:49;21.10;;;10.67;;
35380;SDS011;21486;51.916;8.378;2023-03-15T06:45:15;22.03;;;10.97;;
35380;SDS011;21486;51.916;8.378;2023-03-15T06:47:40;19.77;;;10.75;;
35380;SDS011;21486;51.916;8.378;2023-03-15T06:50:06;19.83;;;10.10;;
35380;SDS011;21486;51.916;8.378;2023-03-15T06:52:32;19.13;;;10.50;;
35380;SDS011;21486;51.916;8.378;2023-03-15T06:54:58;23.33;;;10.80;;
35380;SDS011;21486;51.916;8.378;2023-03-15T06:57:23;26.80;;;11.60;;
35380;SDS011;21486;51.916;8.378;2023-03-15T06:59:49;21.53;;;11.13;;
35380;SDS011;21486;51.916;8.378;2023-03-15T07:02:15;22.77;;;10.87;;
35380;SDS011;21486;51.916;8.378;2023-03-15T07:04:42;22.10;;;10.60;;
35380;SDS011;21486;51.916;8.378;2023-03-15T07:07:09;26.88;;;11.07;;
35380;SDS011;21486;51.916;8.378;2023-03-15T07:09:35;22.92;;;10.90;;
35380;SDS011;21486;51.916;8.378;2023-03-15T07:12:01;26.17;;;11.93;;
35380;SDS011;21486;51.916;8.378;2023-03-15T07:14:26;18.23;;;10.55;;
35380;SDS011;21486;51.916;8.378;2023-03-15T07:16:52;27.70;;;11.32;;
35380;SDS011;21486;51.916;8.378;2023-03-15T07:19:18;24.25;;;11.52;;
35380;SDS011;21486;51.916;8.378;2023-03-15T07:21:43;21.40;;;10.27;;
35380;SDS011;21486;51.916;8.378;2023-03-15T07:24:08;24.08;;;11.52;;
35380;SDS011;21486;51.916;8.378;2023-03-15T07:26:34;31.20;;;12.60;;
35380;SDS011;21486;51.916;8.378;2023-03-15T07:29:00;27.50;;;12.70;;
35380;SDS011;21486;51.916;8.378;2023-03-15T07:31:25;29.42;;;13.35;;
35380;SDS011;21486;51.916;8.378;2023-03-15T07:33:51;33.17;;;14.88;;
35380;SDS011;21486;51.916;8.378;2023-03-15T07:36:16;72.60;;;31.85;;
35380;SDS011;21486;51.916;8.378;2023-03-15T07:38:42;39.03;;;17.17;;
35380;SDS011;21486;51.916;8.378;2023-03-15T07:41:07;36.03;;;18.55;;
35380;SDS011;21486;51.916;8.378;2023-03-15T07:43:33;91.50;;;35.33;;
35380;SDS011;21486;51.916;8.378;2023-03-15T07:45:58;40.67;;;16.70;;
35380;SDS011;21486;51.916;8.378;2023-03-15T07:48:25;55.25;;;20.60;;
35380;SDS011;21486;51.916;8.378;2023-03-15T07:50:53;21.65;;;10.63;;
35380;SDS011;21486;51.916;8.378;2023-03-15T07:53:18;26.88;;;10.73;;
35380;SDS011;21486;51.916;8.378;2023-03-15T07:55:45;21.38;;;8.80;;
35380;SDS011;21486;51.916;8.378;2023-03-15T07:58:12;21.43;;;9.20;;
35380;SDS011;21486;51.916;8.378;2023-03-15T08:00:37;22.57;;;11.30;;
35380;SDS011;21486;51.916;8.378;2023-03-15T08:03:03;16.10;;;7.77;;
35380;SDS011;21486;51.916;8.378;2023-03-15T08:05:29;19.13;;;8.20;;
35380;SDS011;21486;51.916;8.378;2023-03-15T08:07:55;24.48;;;9.30;;
35380;SDS011;21486;51.916;8.378;2023-03-15T08:10:20;23.02;;;7.88;;
35380;SDS011;21486;51.916;8.378;2023-03-15T08:12:46;23.00;;;7.20;;
35380;SDS011;21486;51.916;8.378;2023-03-15T08:15:13;21.98;;;7.47;;
35380;SDS011;21486;51.916;8.378;2023-03-15T08:17:39;23.77;;;7.97;;
35380;SDS011;21486;51.916;8.378;2023-03-15T08:20:07;19.48;;;7.28;;
35380;SDS011;21486;51.916;8.378;2023-03-15T08:22:39;16.23;;;7.35;;
35380;SDS011;21486;51.916;8.378;2023-03-15T08:25:08;16.63;;;7.53;;
35380;SDS011;21486;51.916;8.378;2023-03-15T08:27:35;23.25;;;8.57;;
35380;SDS011;21486;51.916;8.378;2023-03-15T08:30:01;24.38;;;7.70;;
35380;SDS011;21486;51.916;8.378;2023-03-15T08:32:27;22.35;;;8.32;;
35380;SDS011;21486;51.916;8.378;2023-03-15T08:34:53;24.03;;;8.83;;
35380;SDS011;21486;51.916;8.378;2023-03-15T08:37:18;20.83;;;7.70;;
35380;SDS011;21486;51.916;8.378;2023-03-15T08:39:44;27.98;;;7.85;;
35380;SDS011;21486;51.916;8.378;2023-03-15T08:42:10;27.95;;;7.90;;
35380;SDS011;21486;51.916;8.378;2023-03-15T08:44:36;18.50;;;7.60;;
35380;SDS011;21486;51.916;8.378;2023-03-15T08:47:01;22.33;;;8.52;;
35380;SDS011;21486;51.916;8.378;2023-03-15T08:49:29;19.02;;;7.40;;
35380;SDS011;21486;51.916;8.378;2023-03-15T08:51:54;19.43;;;7.13;;
35380;SDS011;21486;51.916;8.378;2023-03-15T08:54:20;22.20;;;7.77;;
35380;SDS011;21486;51.916;8.378;2023-03-15T08:56:47;19.98;;;7.30;;
35380;SDS011;21486;51.916;8.378;2023-03-15T08:59:13;19.97;;;6.93;;
35380;SDS011;21486;51.916;8.378;2023-03-15T09:01:39;21.50;;;7.38;;
35380;SDS011;21486;51.916;8.378;2023-03-15T09:04:04;23.20;;;6.80;;
35380;SDS011;21486;51.916;8.378;2023-03-15T09:06:30;19.13;;;7.23;;
35380;SDS011;21486;51.916;8.378;2023-03-15T09:08:55;22.63;;;8.15;;
35380;SDS011;21486;51.916;8.378;2023-03-15T09:11:21;22.10;;;8.05;;
35380;SDS011;21486;51.916;8.378;2023-03-15T09:13:47;23.05;;;6.45;;
35380;SDS011;21486;51.916;8.378;2023-03-15T09:16:13;15.43;;;5.50;;
35380;SDS011;21486;51.916;8.378;2023-03-15T09:18:38;16.08;;;5.78;;
35380;SDS011;21486;51.916;8.378;2023-03-15T09:21:08;21.88;;;5.78;;
35380;SDS011;21486;51.916;8.378;2023-03-15T09:23:34;18.45;;;6.00;;
35380;SDS011;21486;51.916;8.378;2023-03-15T09:25:59;17.23;;;6.18;;
35380;SDS011;21486;51.916;8.378;2023-03-15T09:28:25;19.75;;;6.35;;
35380;SDS011;21486;51.916;8.378;2023-03-15T09:30:51;24.67;;;7.53;;
35380;SDS011;21486;51.916;8.378;2023-03-15T09:33:16;19.23;;;7.18;;
35380;SDS011;21486;51.916;8.378;2023-03-15T09:35:42;15.57;;;7.07;;
35380;SDS011;21486;51.916;8.378;2023-03-15T09:38:08;17.35;;;6.63;;
35380;SDS011;21486;51.916;8.378;2023-03-15T09:40:37;21.05;;;6.85;;
35380;SDS011;21486;51.916;8.378;2023-03-15T09:48:15;15.00;;;6.57;;
35380;SDS011;21486;51.916;8.378;2023-03-15T09:53:42;17.50;;;5.85;;
35380;SDS011;21486;51.916;8.378;2023-03-15T09:56:23;15.85;;;5.88;;
35380;SDS011;21486;51.916;8.378;2023-03-15T09:58:56;22.10;;;7.03;;
35380;SDS011;21486;51.916;8.378;2023-03-15T10:01:30;18.50;;;7.40;;
35380;SDS011;21486;51.916;8.378;2023-03-15T10:04:02;20.52;;;7.53;;
35380;SDS011;21486;51.916;8.378;2023-03-15T10:06:42;14.88;;;6.60;;
35380;SDS011;21486;51.916;8.378;2023-03-15T10:09:15;17.75;;;6.07;;
35380;SDS011;21486;51.916;8.378;2023-03-15T10:11:46;13.17;;;5.60;;
35380;SDS011;21486;51.916;8.378;2023-03-15T10:17:12;19.17;;;5.43;;
35380;SDS011;21486;51.916;8.378;2023-03-15T10:19:46;13.75;;;4.43;;
35380;SDS011;21486;51.916;8.378;2023-03-15T10:22:23;16.70;;;5.10;;
35380;SDS011;21486;51.916;8.378;2023-03-15T10:25:03;20.80;;;5.57;;
35380;SDS011;21486;51.916;8.378;2023-03-15T10:27:42;12.88;;;3.55;;
35380;SDS011;21486;51.916;8.378;2023-03-15T10:30:34;14.27;;;3.72;;
35380;SDS011;21486;51.916;8.378;2023-03-15T10:33:03;10.40;;;3.78;;
35380;SDS011;21486;51.916;8.378;2023-03-15T10:35:52;12.13;;;3.90;;
35380;SDS011;21486;51.916;8.378;2023-03-15T10:38:18;13.93;;;3.97;;
35380;SDS011;21486;51.916;8.378;2023-03-15T10:40:46;11.30;;;4.15;;
35380;SDS011;21486;51.916;8.378;2023-03-15T10:43:24;11.93;;;3.47;;
35380;SDS011;21486;51.916;8.378;2023-03-15T10:46:10;13.55;;;4.13;;
35380;SDS011;21486;51.916;8.378;2023-03-15T10:48:53;11.07;;;3.50;;
35380;SDS011;21486;51.916;8.378;2023-03-15T10:51:25;13.97;;;3.37;;
35380;SDS011;21486;51.916;8.378;2023-03-15T10:53:54;12.07;;;3.50;;
35380;SDS011;21486;51.916;8.378;2023-03-15T10:56:30;12.20;;;3.60;;
35380;SDS011;21486;51.916;8.378;2023-03-15T10:58:59;8.20;;;2.97;;
35380;SDS011;21486;51.916;8.378;2023-03-15T11:01:29;10.20;;;2.78;;
35380;SDS011;21486;51.916;8.378;2023-03-15T11:04:09;12.93;;;3.10;;
35380;SDS011;21486;51.916;8.378;2023-03-15T11:09:18;7.80;;;2.70;;
35380;SDS011;21486;51.916;8.378;2023-03-15T11:11:59;11.15;;;3.20;;
35380;SDS011;21486;51.916;8.378;2023-03-15T11:14:35;13.80;;;3.15;;
35380;SDS011;21486;51.916;8.378;2023-03-15T11:17:11;11.90;;;3.00;;
35380;SDS011;21486;51.916;8.378;2023-03-15T11:19:50;9.00;;;2.15;;
35380;SDS011;21486;51.916;8.378;2023-03-15T11:22:21;10.18;;;2.47;;
35380;SDS011;21486;51.916;8.378;2023-03-15T11:24:47;14.45;;;3.05;;
35380;SDS011;21486;51.916;8.378;2023-03-15T11:27:15;12.10;;;3.00;;
35380;SDS011;21486;51.916;8.378;2023-03-15T11:29:49;12.45;;;2.50;;
35380;SDS011;21486;51.916;8.378;2023-03-15T11:32:19;12.32;;;2.80;;
35380;SDS011;21486;51.916;8.378;2023-03-15T11:37:18;11.73;;;2.65;;
35380;SDS011;21486;51.916;8.378;2023-03-15T11:39:56;12.65;;;2.38;;
35380;SDS011;21486;51.916;8.378;2023-03-15T11:42:48;7.67;;;2.23;;
35380;SDS011;21486;51.916;8.378;2023-03-15T11:45:33;7.90;;;2.25;;
35380;SDS011;21486;51.916;8.378;2023-03-15T11:48:32;6.90;;;2.22;;
35380;SDS011;21486;51.916;8.378;2023-03-15T11:51:05;10.55;;;2.17;;
35380;SDS011;21486;51.916;8.378;2023-03-15T11:53:33;8.57;;;2.15;;
35380;SDS011;21486;51.916;8.378;2023-03-15T11:56:18;9.50;;;2.03;;
35380;SDS011;21486;51.916;8.378;2023-03-15T12:01:41;7.38;;;1.85;;
35380;SDS011;21486;51.916;8.378;2023-03-15T12:04:37;10.85;;;2.08;;
35380;SDS011;21486;51.916;8.378;2023-03-15T12:09:46;8.70;;;1.75;;
35380;SDS011;21486;51.916;8.378;2023-03-15T12:17:42;7.25;;;1.90;;
35380;SDS011;21486;51.916;8.378;2023-03-15T12:25:36;9.25;;;2.00;;
35380;SDS011;21486;51.916;8.378;2023-03-15T12:28:04;6.27;;;1.80;;
35380;SDS011;21486;51.916;8.378;2023-03-15T12:30:42;4.47;;;1.57;;
35380;SDS011;21486;51.916;8.378;2023-03-15T12:33:13;7.65;;;2.17;;
35380;SDS011;21486;51.916;8.378;2023-03-15T12:35:41;4.60;;;1.90;;
35380;SDS011;21486;51.916;8.378;2023-03-15T12:40:50;8.98;;;2.17;;
35380;SDS011;21486;51.916;8.378;2023-03-15T12:46:07;5.85;;;1.75;;
35380;SDS011;21486;51.916;8.378;2023-03-15T12:49:12;8.30;;;2.10;;
35380;SDS011;21486;51.916;8.378;2023-03-15T12:52:00;6.40;;;1.80;;
35380;SDS011;21486;51.916;8.378;2023-03-15T12:57:35;7.30;;;2.05;;
35380;SDS011;21486;51.916;8.378;2023-03-15T13:02:33;6.63;;;1.80;;
35380;SDS011;21486;51.916;8.378;2023-03-15T13:10:45;6.53;;;1.70;;
35380;SDS011;21486;51.916;8.378;2023-03-15T13:13:30;6.50;;;1.98;;
35380;SDS011;21486;51.916;8.378;2023-03-15T13:22:15;5.90;;;1.70;;
35380;SDS011;21486;51.916;8.378;2023-03-15T13:27:37;5.70;;;1.80;;
35380;SDS011;21486;51.916;8.378;2023-03-15T13:33:03;5.40;;;1.60;;
35380;SDS011;21486;51.916;8.378;2023-03-15T13:35:29;3.97;;;1.50;;
35380;SDS011;21486;51.916;8.378;2023-03-15T13:38:38;7.35;;;1.92;;
35380;SDS011;21486;51.916;8.378;2023-03-15T13:40:50;9.13;;;2.10;;
35380;SDS011;21486;51.916;8.378;2023-03-15T13:43:16;6.10;;;1.55;;
35380;SDS011;21486;51.916;8.378;2023-03-15T13:45:42;4.18;;;1.60;;
35380;SDS011;21486;51.916;8.378;2023-03-15T13:48:08;3.38;;;1.30;;
35380;SDS011;21486;51.916;8.378;2023-03-15T14:35:30;4.55;;;1.42;;
35380;SDS011;21486;51.916;8.378;2023-03-15T14:38:23;6.38;;;1.33;;
35380;SDS011;21486;51.916;8.378;2023-03-15T14:40:50;4.03;;;1.77;;
35380;SDS011;21486;51.916;8.378;2023-03-15T14:43:16;4.03;;;1.40;;
35380;SDS011;21486;51.916;8.378;2023-03-15T14:45:43;5.47;;;1.75;;
35380;SDS011;21486;51.916;8.378;2023-03-15T14:48:15;7.00;;;1.55;;
35380;SDS011;21486;51.916;8.378;2023-03-15T14:50:50;6.63;;;1.92;;
35380;SDS011;21486;51.916;8.378;2023-03-15T14:53:17;6.20;;;1.60;;
35380;SDS011;21486;51.916;8.378;2023-03-15T14:55:46;6.78;;;1.52;;
35380;SDS011;21486;51.916;8.378;2023-03-15T14:58:13;7.45;;;1.50;;
35380;SDS011;21486;51.916;8.378;2023-03-15T15:00:41;7.18;;;2.03;;
35380;SDS011;21486;51.916;8.378;2023-03-15T15:05:46;4.97;;;1.33;;
35380;SDS011;21486;51.916;8.378;2023-03-15T15:08:13;3.17;;;1.38;;
35380;SDS011;21486;51.916;8.378;2023-03-15T15:10:43;4.80;;;1.67;;
35380;SDS011;21486;51.916;8.378;2023-03-15T15:13:11;4.28;;;1.30;;
35380;SDS011;21486;51.916;8.378;2023-03-15T16:11:59;9.07;;;1.43;;
35380;SDS011;21486;51.916;8.378;2023-03-15T16:14:25;12.35;;;1.85;;
35380;SDS011;21486;51.916;8.378;2023-03-15T16:16:50;4.10;;;1.40;;
35380;SDS011;21486;51.916;8.378;2023-03-15T16:19:16;3.60;;;1.60;;
35380;SDS011;21486;51.916;8.378;2023-03-15T16:21:43;8.07;;;1.70;;
35380;SDS011;21486;51.916;8.378;2023-03-15T16:24:18;5.47;;;1.63;;
35380;SDS011;21486;51.916;8.378;2023-03-15T16:26:50;5.53;;;1.85;;
35380;SDS011;21486;51.916;8.378;2023-03-15T16:29:22;7.15;;;1.63;;
35380;SDS011;21486;51.916;8.378;2023-03-15T16:31:51;7.15;;;2.08;;
35380;SDS011;21486;51.916;8.378;2023-03-15T16:34:17;7.80;;;1.40;;
35380;SDS011;21486;51.916;8.378;2023-03-15T16:36:44;7.97;;;2.50;;
35380;SDS011;21486;51.916;8.378;2023-03-15T16:39:12;4.88;;;1.65;;
35380;SDS011;21486;51.916;8.378;2023-03-15T16:41:39;4.85;;;1.58;;
35380;SDS011;21486;51.916;8.378;2023-03-15T16:44:15;12.85;;;1.55;;
35380;SDS011;21486;51.916;8.378;2023-03-15T16:46:42;6.28;;;2.00;;
35380;SDS011;21486;51.916;8.378;2023-03-15T16:49:08;7.00;;;2.30;;
35380;SDS011;21486;51.916;8.378;2023-03-15T16:51:34;6.75;;;1.88;;
35380;SDS011;21486;51.916;8.378;2023-03-15T16:54:02;7.55;;;2.28;;
35380;SDS011;21486;51.916;8.378;2023-03-15T16:56:28;7.63;;;2.58;;
35380;SDS011;21486;51.916;8.378;2023-03-15T16:58:59;10.85;;;2.50;;
35380;SDS011;21486;51.916;8.378;2023-03-15T17:01:25;6.47;;;2.50;;
35380;SDS011;21486;51.916;8.378;2023-03-15T17:03:51;13.55;;;2.15;;
35380;SDS011;21486;51.916;8.378;2023-03-15T17:06:17;7.57;;;2.53;;
35380;SDS011;21486;51.916;8.378;2023-03-15T17:08:47;7.05;;;2.88;;
35380;SDS011;21486;51.916;8.378;2023-03-15T17:11:14;9.13;;;3.30;;
35380;SDS011;21486;51.916;8.378;2023-03-15T17:13:40;9.23;;;2.97;;
35380;SDS011;21486;51.916;8.378;2023-03-15T17:16:13;9.18;;;3.03;;
35380;SDS011;21486;51.916;8.378;2023-03-15T17:18:40;9.35;;;3.10;;
35380;SDS011;21486;51.916;8.378;2023-03-15T17:21:09;8.52;;;3.03;;
35380;SDS011;21486;51.916;8.378;2023-03-15T17:23:39;7.80;;;3.60;;
35380;SDS011;21486;51.916;8.378;2023-03-15T17:26:10;10.88;;;3.78;;
35380;SDS011;21486;51.916;8.378;2023-03-15T17:28:46;6.05;;;3.00;;
35380;SDS011;21486;51.916;8.378;2023-03-15T17:31:21;14.50;;;4.43;;
35380;SDS011;21486;51.916;8.378;2023-03-15T17:33:50;16.35;;;3.17;;
35380;SDS011;21486;51.916;8.378;2023-03-15T17:36:19;15.20;;;3.47;;